Terminal Aerodrome Forecast
Issued by NWS Upton, NY

Home | Current Version | Previous Version | Text Only | Print | Product List | Glossary On
Versions: 1 2 3 4 5 6 7 8 9 10 11 12 13 14 15 16 17 18 19 20 21 22 23 24 25
000
FTUS41 KOKX 281100
TAFEWR
TAF
KEWR 281131Z 2812/2918 25006KT P6SM -SHRA FEW030 OVC050
     FM281700 27008KT P6SM -SHRA SCT030 OVC050
      TEMPO 2817/2821 BKN030
     FM282200 30008KT P6SM SCT030 BKN050
     FM290200 33009KT P6SM SCT040 BKN100
     FM290600 32007KT P6SM FEW040 SCT250=

USA.gov is the U.S. government's official web portal to all federal, state and local government web resources and services.